createdAt,value
2022-09-23T00:01:04.868Z,3.58
2022-09-23T00:06:11.584Z,2.92
2022-09-23T00:11:15.006Z,3.15
2022-09-23T00:16:19.082Z,3.20
2022-09-23T00:21:20.828Z,3.47
2022-09-23T00:26:22.827Z,3.00
2022-09-23T00:31:25.400Z,3.38
2022-09-23T00:36:27.323Z,3.50
2022-09-23T00:41:28.800Z,3.60
2022-09-23T00:46:34.390Z,3.70
2022-09-23T00:51:38.663Z,3.90
2022-09-23T00:56:40.148Z,3.05
2022-09-23T01:01:41.657Z,3.83
2022-09-23T01:06:43.131Z,3.67
2022-09-23T01:12:11.952Z,3.10
2022-09-23T01:17:37.407Z,3.58
2022-09-23T01:22:51.584Z,3.60
2022-09-23T01:28:20.819Z,3.95
2022-09-23T01:33:27.123Z,3.90
2022-09-23T01:38:51.330Z,3.63
2022-09-23T01:44:18.530Z,3.85
2022-09-23T01:49:38.813Z,3.90
2022-09-23T01:54:47.743Z,3.97
2022-09-23T01:59:56.061Z,4.65
2022-09-23T02:05:08.326Z,4.60
2022-09-23T02:10:17.264Z,4.63
2022-09-23T02:15:21.205Z,4.47
2022-09-23T02:20:25.121Z,5.38
2022-09-23T02:25:39.302Z,5.00
2022-09-23T02:30:49.070Z,5.13
2022-09-23T02:36:26.051Z,5.15
2022-09-23T02:41:32.475Z,5.43
2022-09-23T02:46:34.240Z,5.53
2022-09-23T02:51:38.142Z,5.45
2022-09-23T02:56:40.053Z,4.30
2022-09-23T03:02:14.088Z,4.57
2022-09-23T03:07:23.470Z,4.47
2022-09-23T03:12:41.835Z,4.38
2022-09-23T03:18:02.621Z,4.63
2022-09-23T03:23:07.457Z,4.40
2022-09-23T03:28:08.922Z,3.83
2022-09-23T03:33:12.446Z,4.32
2022-09-23T03:38:16.016Z,4.07
2022-09-23T03:43:17.492Z,4.03
2022-09-23T03:48:18.970Z,3.00
2022-09-23T03:53:21.158Z,3.38
2022-09-23T03:58:22.629Z,3.28
2022-09-23T04:03:26.145Z,3.50
2022-09-23T04:08:27.618Z,2.47
2022-09-23T04:13:29.413Z,3.22
2022-09-23T04:18:31.354Z,3.88
2022-09-23T04:23:32.815Z,2.97
2022-09-23T04:28:34.407Z,2.53
2022-09-23T04:33:36.107Z,3.28
2022-09-23T04:38:37.581Z,3.53
2022-09-23T04:43:39.220Z,3.22
2022-09-23T04:48:41.578Z,2.78
2022-09-23T04:53:43.861Z,3.22
2022-09-23T04:58:46.040Z,3.60
2022-09-23T05:03:47.528Z,3.10
2022-09-23T05:08:53.834Z,3.33
2022-09-23T05:13:55.341Z,3.28
2022-09-23T05:18:57.554Z,3.30
2022-09-23T05:24:00.569Z,3.58
2022-09-23T05:29:02.129Z,3.40
2022-09-23T05:34:04.651Z,3.30
2022-09-23T05:39:07.080Z,3.30
2022-09-23T05:44:08.896Z,3.60
2022-09-23T05:49:10.552Z,4.22
2022-09-23T05:54:12.323Z,3.67
2022-09-23T05:59:13.799Z,3.53
2022-09-23T06:04:18.903Z,4.22
2022-09-23T06:09:20.453Z,3.50
2022-09-23T06:14:21.951Z,3.92
2022-09-23T06:19:23.475Z,4.72
2022-09-23T06:24:30.125Z,3.92
2022-09-23T06:29:33.133Z,4.65
2022-09-23T06:34:46.127Z,3.92
2022-09-23T06:39:50.529Z,3.97
2022-09-23T06:44:52.042Z,4.38
2022-09-23T06:49:53.509Z,5.40
2022-09-23T06:54:55.773Z,4.47
2022-09-23T07:05:00.556Z,4.35
2022-09-23T07:10:02.092Z,4.40
2022-09-23T07:15:03.828Z,4.55
2022-09-23T07:20:05.604Z,4.93
2022-09-23T07:25:07.330Z,4.40
2022-09-23T07:30:17.929Z,4.57
2022-09-23T07:35:20.603Z,5.30
2022-09-23T07:40:22.159Z,5.72
2022-09-23T07:45:23.684Z,4.95
2022-09-23T07:50:25.182Z,5.40
2022-09-23T07:55:26.662Z,6.15
2022-09-23T08:00:28.137Z,6.53
2022-09-23T08:05:29.606Z,5.93
2022-09-23T08:10:31.081Z,6.00
2022-09-23T08:15:32.649Z,5.90
2022-09-23T08:20:47.746Z,6.10
2022-09-23T08:25:49.693Z,5.75
2022-09-23T08:30:51.186Z,6.38
2022-09-23T08:35:52.837Z,6.25
2022-09-23T08:41:01.425Z,6.32
2022-09-23T08:51:06.554Z,6.53
2022-09-23T08:56:10.951Z,5.90
2022-09-23T09:01:54.231Z,6.30
2022-09-23T09:07:24.460Z,6.68
2022-09-23T09:12:30.915Z,6.30
2022-09-23T09:17:48.182Z,6.45
2022-09-23T09:22:49.542Z,6.32
2022-09-23T09:27:51.716Z,6.50
2022-09-23T09:38:03.951Z,6.32
2022-09-23T09:43:05.498Z,5.95
2022-09-23T09:48:20.772Z,6.88
2022-09-23T09:53:35.607Z,6.88
2022-09-23T09:58:55.603Z,6.13
2022-09-23T10:03:59.509Z,6.57
2022-09-23T10:09:01.566Z,6.38
2022-09-23T10:14:19.519Z,7.05
2022-09-23T10:19:29.887Z,7.05
2022-09-23T10:24:32.632Z,6.68
2022-09-23T10:29:46.507Z,6.22
2022-09-23T10:34:53.933Z,6.00
2022-09-23T10:40:13.957Z,6.10
2022-09-23T10:45:52.475Z,5.47
2022-09-23T10:50:54.114Z,5.75
2022-09-23T10:56:08.571Z,7.03
2022-09-23T11:01:19.764Z,6.22
2022-09-23T11:07:07.255Z,6.25
2022-09-23T11:12:21.320Z,5.88
2022-09-23T11:17:41.609Z,6.43
2022-09-23T11:23:20.154Z,6.32
2022-09-23T11:28:40.326Z,6.18
2022-09-23T11:34:12.504Z,7.50
2022-09-23T11:39:28.194Z,5.93
2022-09-23T11:44:32.502Z,6.85
2022-09-23T11:49:40.213Z,7.60
2022-09-23T11:55:22.224Z,7.25
2022-09-23T12:00:26.637Z,7.03
2022-09-23T12:05:31.538Z,7.15
2022-09-23T12:10:51.659Z,6.15
2022-09-23T12:16:21.677Z,5.72
2022-09-23T12:22:08.099Z,5.80
2022-09-23T12:27:12.944Z,5.32
2022-09-23T12:32:18.407Z,5.60
2022-09-23T12:37:27.191Z,6.65
2022-09-23T12:42:31.120Z,5.88
2022-09-23T12:47:39.273Z,6.65
2022-09-23T12:52:40.771Z,7.28
2022-09-23T12:57:42.576Z,7.43
2022-09-23T13:02:46.768Z,8.50
2022-09-23T13:07:48.838Z,7.22
2022-09-23T13:12:50.320Z,8.70
2022-09-23T13:17:51.809Z,7.47
2022-09-23T13:22:53.123Z,6.75
2022-09-23T13:27:55.782Z,8.02
2022-09-23T13:33:05.323Z,6.57
2022-09-23T13:38:20.534Z,7.78
2022-09-23T13:43:25.157Z,6.55
2022-09-23T13:48:28.086Z,6.95
2022-09-23T13:53:30.194Z,8.30
2022-09-23T13:58:32.118Z,7.00
2022-09-23T14:08:40.144Z,6.63
2022-09-23T14:13:42.166Z,6.85
2022-09-23T14:23:48.936Z,6.32
2022-09-23T14:28:50.444Z,6.38
2022-09-23T14:33:51.922Z,7.53
2022-09-23T14:38:53.409Z,6.47
2022-09-23T14:43:59.108Z,7.15
2022-09-23T14:49:12.368Z,7.28
2022-09-23T14:54:25.499Z,6.22
2022-09-23T14:59:34.699Z,7.80
2022-09-23T15:04:36.389Z,8.13
2022-09-23T15:09:39.263Z,7.60
2022-09-23T15:14:42.967Z,7.43
2022-09-23T15:19:44.624Z,6.57
2022-09-23T15:24:46.235Z,6.93
2022-09-23T15:29:48.318Z,6.68
2022-09-23T15:39:51.808Z,7.10
2022-09-23T15:44:53.295Z,6.85
2022-09-23T15:49:54.803Z,7.03
2022-09-23T15:54:56.284Z,6.50
2022-09-23T15:59:58.451Z,5.85
2022-09-23T16:10:07.661Z,6.63
2022-09-23T16:15:13.330Z,6.20
2022-09-23T16:20:17.847Z,6.20
2022-09-23T16:25:19.834Z,6.65
2022-09-23T16:30:22.981Z,6.68
2022-09-23T16:35:27.771Z,6.18
2022-09-23T16:40:29.329Z,6.22
2022-09-23T16:45:31.111Z,8.20
2022-09-23T16:50:33.450Z,7.47
2022-09-23T16:55:35.181Z,8.73
2022-09-23T17:00:55.070Z,7.35
2022-09-23T17:05:56.592Z,7.60
2022-09-23T17:10:58.611Z,9.32
2022-09-23T17:16:00.552Z,8.45
2022-09-23T17:21:04.484Z,8.88
2022-09-23T17:26:09.539Z,9.13
2022-09-23T17:31:11.064Z,8.68
2022-09-23T17:36:13.141Z,8.55
2022-09-23T17:46:18.606Z,8.60
2022-09-23T17:51:20.398Z,8.90
2022-09-23T17:56:24.923Z,8.68
2022-09-23T18:01:26.665Z,9.23
2022-09-23T18:06:29.283Z,9.73
2022-09-23T18:11:32.711Z,9.73
2022-09-23T18:16:35.542Z,9.77
2022-09-23T18:21:37.948Z,8.25
2022-09-23T18:26:39.492Z,8.07
2022-09-23T18:31:41.178Z,10.93
2022-09-23T18:36:43.122Z,10.13
2022-09-23T18:41:44.600Z,9.15
2022-09-23T18:46:46.075Z,11.00
2022-09-23T18:51:55.614Z,9.60
2022-09-23T18:56:57.568Z,10.40
2022-09-23T19:01:59.167Z,12.25
2022-09-23T19:07:00.715Z,9.98
2022-09-23T19:12:03.269Z,12.10
2022-09-23T19:17:05.081Z,10.45
2022-09-23T19:22:06.993Z,10.80
2022-09-23T19:27:08.488Z,12.07
2022-09-23T19:32:10.533Z,10.30
2022-09-23T19:37:12.225Z,11.68
2022-09-23T19:42:13.713Z,11.90
2022-09-23T19:47:17.411Z,10.30
2022-09-23T19:52:18.998Z,12.48
2022-09-23T19:57:20.479Z,13.15
2022-09-23T20:02:22.034Z,13.65
2022-09-23T20:07:23.575Z,13.15
2022-09-23T20:12:25.051Z,11.88
2022-09-23T20:17:26.573Z,8.77
2022-09-23T20:22:33.174Z,7.15
2022-09-23T20:27:35.066Z,7.78
2022-09-23T20:32:36.936Z,9.80
2022-09-23T20:37:38.412Z,8.60
2022-09-23T20:42:39.888Z,8.32
2022-09-23T20:47:41.431Z,9.45
2022-09-23T20:52:42.936Z,7.75
2022-09-23T20:57:45.171Z,7.15
2022-09-23T21:07:48.035Z,7.30
2022-09-23T21:12:50.418Z,6.18
2022-09-23T21:17:52.220Z,5.53
2022-09-23T21:22:54.871Z,5.88
2022-09-23T21:27:56.362Z,6.85
2022-09-23T21:32:59.440Z,6.35
2022-09-23T21:38:00.962Z,6.90
2022-09-23T21:43:02.439Z,5.65
2022-09-23T21:48:04.530Z,6.35
2022-09-23T21:53:07.127Z,8.55
2022-09-23T21:58:08.605Z,7.97
2022-09-23T22:03:10.083Z,8.90
2022-09-23T22:08:11.624Z,11.52
2022-09-23T22:13:13.249Z,13.35
2022-09-23T22:18:14.739Z,11.40
2022-09-23T22:23:16.228Z,15.13
2022-09-23T22:28:36.397Z,15.65
2022-09-23T22:33:37.889Z,15.38
2022-09-23T22:38:41.494Z,14.38
2022-09-23T22:43:42.967Z,14.27
2022-09-23T22:48:44.452Z,14.18
2022-09-23T22:53:45.988Z,12.10
2022-09-23T22:58:47.749Z,12.90
2022-09-23T23:03:52.851Z,11.43
2022-09-23T23:08:59.500Z,13.25
2022-09-23T23:14:02.302Z,13.95
2022-09-23T23:19:09.942Z,12.45
2022-09-23T23:24:19.268Z,12.68
2022-09-23T23:29:21.158Z,13.45
2022-09-23T23:34:22.996Z,12.77
2022-09-23T23:39:24.918Z,14.52
2022-09-23T23:44:26.580Z,13.80
2022-09-23T23:49:28.684Z,14.95
2022-09-23T23:54:30.184Z,15.63
2022-09-23T23:59:31.894Z,15.25
